Morristown, Ohio
Current Conditions -  °F | °C
As of 7:53 PM on Wednesday 17 Dec 2014 (Local Time) from KHLG Reporting Station
Overcast Overcast  
Wind Chill: 22°   Ceiling: 2600
Heat Index: 31°   Visibility: 10mi
Dew Point: 21°   Wind: 12mph
Humidity: 67%   Direction: 270°W
Pressure: 30.12"   Gusts: 29mph
Location:  40.06°N, 81.07°W
Report Text: KHLG 180053Z 27010G25KT 10SM OVC026 M01/M06 A3012 RMK AO2 PK WND 28026/0036 SLP215 T10061061
Loading
Personal Weather Stations






























Interactive Weather Map New forecast layout! Learn more

10-Day Weather Forecast

Advertisements
Track Severe Weather on mobile